Aérodrome :
LOGIN :

S'inscrire | Disclaimer

   EN    FR    IT 

 










Légende :    VFR   VFR Marginal   IFR   IFR Intensif   IFR Très Intensif
Visi : 
Plafond : 
>= 8 km
>= 3000ft
5 à 8 km
1000 à 3000 ft
1500m à 5 km
500 à 1000 ft
800 à 1500m
200 à 500 ft
< 800m
< 200 ft
Symboles :   Orages  Brouillard  Fortes neiges  Fortes précipitations  Vent > 20 kt
SIGMETs :   Divers  Orages  Givrage  Turbulence  Onde Orograph.  Cendres Volcan.






- Altitude de l'aérodrome : 265 ft


LFMC - Le Luc

DERNIER METAR :
  • 021930Z AUTO VRB02KT 9999 ////// 08/02 Q1013

METARs EXPIRÉS :
  • 021900Z AUTO VRB02KT 9999 ////// 09/03 Q1013
  • 021830Z AUTO 06005KT 9999 ////// 09/03 Q1012
  • 021800Z AUTO 08005KT 9999 ////// 11/03 Q1012
  • 021730Z AUTO 11007KT 9999 ////// 12/03 Q1012
  • 021700Z AUTO 12006KT 080V150 9999 ////// 13/03 Q1011
  • 021630Z AUTO VRB03KT 9999 ////// 14/02 Q1012

TAF N/A



MET'MAP, la Météo Aéronautique d'un coup d'oeil ! - Copyright ORBIFLY Décembre 2007 - Disclaimer

ORBIFLY MET'MAP TEAM :

Programmation & Développement : Alexandra Zaïnal
Sur une idée originale de : Baudouin d'Aumeries
Assistance à la programmation : Marc-Olivier Méhu
Soutien technique & logistique : Manuel Goepfert

Contact : metmap@orbifly.com




SOURCES & CREDITS :

   NOAA